Funston, GA (31753)

10:09 PM EDT on July 31, 2014 (GMT -0400)
City of Moultrie Service Center (KGAMOULT2) Elev 299 ft | 31.19 °N, 83.79 °W | Change Station

Current weather conditions updated 1 minute ago

Clear
Clear
80.3 °F
Feels Like 82 °F
N
0.0
Wind Variable Wind from WNW
Gusts 2.0 mph

Tomorrow is forecast to be nearly the same temperature as today. Thunderstorms likely early tomorrow night.

Today
High -- | Low -- °F
--% Chance of Precip.
Yesterday
High -- | Low -- °F
Precip. -- in
6:52 AM 8:32 PM
Waxing Crescent, 22% visible
Pressure 30.00 in
Visibility 7.0 miles
Clouds Clear
Heat Index 82 °F
Dew Point 66 °F
Humidity 62%
Rainfall 0.00 in
Snow Depth Not available.
UV 0 out of 12
Pollen 5.60 out of 12
Air Quality Not available.
Flu Activity Not available.
METAR KMGR 010155Z AUTO 00000KT 7SM CLR 26/21 A3000 RMK AO2

More Conditions Fewer Conditions

Pressure 30.00 in
Visibility 7.0 miles
Clouds Clear
Heat Index 82 °F
Dew Point 66 °F
Humidity 62%
Rainfall 0.00 in
Snow Depth Not available.
UV 0 out of 12
Pollen 5.60 out of 12
Air Quality Not available.
Flu Activity Not available.
METAR KMGR 010155Z AUTO 00000KT 7SM CLR 26/21 A3000 RMK AO2

More Conditions Fewer Conditions

10-Day Weather Forecast

Almanac

Astronomy

Jul. 31, 2014 Rise Set
Actual Time 6:52 AM EDT 8:32 PM EDT
Civil Twilight 6:25 AM EDT 8:58 PM EDT
Nautical Twilight 5:53 AM EDT 9:30 PM EDT
Astronomical Twilight 5:20 AM EDT 10:03 PM EDT
Moon 10:58 AM EDT (7/31) 11:06 PM EDT (7/31)
Length of Visible Light 14h 32m
Length of Day
13h 40m
Tomorrow will be 1m 23s shorter.
Waxing Crescent, 22% of the Moon is Illuminated
Today
Waxing Crescent
Aug 3
First Quarter
Aug 10
Full
Aug 17
Last Quarter
Aug 25
New

Today's Extremes

State Highs State Lows

Community

WunderPhotos

Upload Photos

1,739,500 photos uploaded!

Nearby

Snow Depth

Station Depth Elevation
No new snow has been reported.

Earthquake Activity

City Distance Mag. Time & Date
No recent earthquake activity has been reported nearby.
Minimum magnitude displayed is 2.5.

Coastal Water Temperatures

Place Temperature
No Stations Reporting

Nearby Weather Stations

Station Location Temp. Heat Index Dew Point Humidity Wind Precip. Elev Updated Type
City of Moultrie Service Center, Moultrie, GA 80.3 °F 82 °F 66 °F 62% WNW  at  0.0 mph 0.00 in / hr 299 ft 10:08 PM EDT Normal
RAWS CAMILLA GA, Camilla, GA 79 °F 80 °F 61 °F 55% North  at  0 mph 0.00 in / hr 160 ft 9:04 PM EDT MADIS
Worth County High School, Sylvester, GA 77.6 °F 80 °F 67 °F 70% SSW  at  0.0 mph 0.00 in / hr 436 ft 10:00 PM EDT Normal

Show More Stations Show Fewer Stations